createdAt,value
2018-10-18T00:02:26.849Z,86.30
2018-10-18T00:04:55.496Z,86.20
2018-10-18T00:07:24.240Z,86.20
2018-10-18T00:09:52.880Z,86.40
2018-10-18T00:12:21.782Z,86.10
2018-10-18T00:14:50.508Z,86.10
2018-10-18T00:17:53.477Z,86.00
2018-10-18T00:20:22.124Z,85.70
2018-10-18T00:22:50.755Z,85.60
2018-10-18T00:25:19.444Z,85.40
2018-10-18T00:27:48.082Z,85.30
2018-10-18T00:30:16.875Z,85.50
2018-10-18T00:32:45.657Z,85.50
2018-10-18T00:35:14.309Z,85.20
2018-10-18T00:37:42.948Z,85.20
2018-10-18T00:40:12.393Z,85.30
2018-10-18T00:42:41.454Z,85.30
2018-10-18T00:45:10.723Z,85.60
2018-10-18T00:47:39.465Z,85.70
2018-10-18T00:50:09.659Z,85.60
2018-10-18T00:52:38.244Z,85.70
2018-10-18T00:55:07.559Z,85.70
2018-10-18T00:57:36.197Z,85.90
2018-10-18T01:00:05.329Z,86.10
2018-10-18T01:02:34.077Z,86.10
2018-10-18T01:05:02.761Z,86.80
2018-10-18T01:07:31.419Z,86.20
2018-10-18T01:10:00.060Z,86.20
2018-10-18T01:12:28.819Z,86.20
2018-10-18T01:14:57.348Z,86.20
2018-10-18T01:17:25.482Z,86.10
2018-10-18T01:19:54.144Z,86.30
2018-10-18T01:22:22.784Z,86.50
2018-10-18T01:24:51.420Z,86.60
2018-10-18T01:27:20.109Z,86.50
2018-10-18T01:29:48.805Z,86.30
2018-10-18T01:32:17.467Z,86.40
2018-10-18T01:34:46.072Z,87.10
2018-10-18T01:37:14.676Z,86.70
2018-10-18T01:39:43.313Z,86.60
2018-10-18T01:42:12.048Z,86.80
2018-10-18T01:44:40.685Z,86.80
2018-10-18T01:47:09.333Z,87.00
2018-10-18T01:49:38.025Z,87.10
2018-10-18T01:52:06.718Z,87.20
2018-10-18T01:54:35.328Z,87.10
2018-10-18T01:57:03.990Z,87.10
2018-10-18T01:59:32.620Z,86.90
2018-10-18T02:02:01.312Z,86.70
2018-10-18T02:04:30.022Z,86.60
2018-10-18T02:06:58.653Z,86.50
2018-10-18T02:09:27.358Z,86.50
2018-10-18T02:11:56.019Z,86.50
2018-10-18T02:14:24.660Z,86.50
2018-10-18T02:16:53.252Z,86.20
2018-10-18T02:19:22.042Z,86.20
2018-10-18T02:21:50.659Z,86.30
2018-10-18T02:24:19.293Z,86.20
2018-10-18T02:26:47.964Z,86.10
2018-10-18T02:29:16.580Z,86.10
2018-10-18T02:31:45.219Z,86.00
2018-10-18T02:34:13.896Z,86.00
2018-10-18T02:36:42.485Z,86.10
2018-10-18T02:39:11.286Z,86.10
2018-10-18T02:41:39.904Z,86.10
2018-10-18T02:44:08.561Z,86.70
2018-10-18T02:46:37.244Z,86.10
2018-10-18T02:49:05.949Z,86.10
2018-10-18T02:51:34.571Z,86.20
2018-10-18T02:54:03.389Z,86.40
2018-10-18T02:56:31.909Z,87.30
2018-10-18T02:59:00.577Z,86.60
2018-10-18T03:01:29.209Z,86.90
2018-10-18T03:03:57.825Z,86.70
2018-10-18T03:06:26.559Z,86.50
2018-10-18T03:08:55.176Z,86.40
2018-10-18T03:11:23.817Z,86.20
2018-10-18T03:13:52.532Z,86.20
2018-10-18T03:16:21.136Z,86.20
2018-10-18T03:18:49.823Z,86.00
2018-10-18T03:21:18.746Z,86.10
2018-10-18T03:23:47.352Z,86.20
2018-10-18T03:26:16.028Z,86.30
2018-10-18T03:28:44.681Z,86.20
2018-10-18T03:31:13.333Z,86.20
2018-10-18T03:33:42.009Z,86.20
2018-10-18T03:36:10.649Z,86.10
2018-10-18T03:38:39.327Z,86.10
2018-10-18T03:41:07.960Z,86.10
2018-10-18T03:43:36.629Z,86.20
2018-10-18T03:46:05.348Z,86.10
2018-10-18T03:48:34.503Z,86.10
2018-10-18T03:51:03.154Z,86.10
2018-10-18T03:53:31.789Z,86.40
2018-10-18T03:56:00.387Z,86.50
2018-10-18T03:58:29.073Z,86.30
2018-10-18T04:00:57.745Z,86.40
2018-10-18T04:03:26.400Z,86.50
2018-10-18T04:05:55.041Z,86.40
2018-10-18T04:08:23.724Z,86.20
2018-10-18T04:10:52.389Z,86.70
2018-10-18T04:13:21.121Z,86.70
2018-10-18T04:15:49.735Z,87.00
2018-10-18T04:18:18.443Z,86.80
2018-10-18T04:20:46.489Z,86.70
2018-10-18T04:23:19.313Z,86.60
2018-10-18T04:25:47.904Z,86.50
2018-10-18T04:28:16.548Z,86.50
2018-10-18T04:30:45.161Z,86.20
2018-10-18T04:33:14.028Z,86.40
2018-10-18T04:35:42.625Z,86.60
2018-10-18T04:38:11.232Z,86.70
2018-10-18T04:40:40.144Z,86.80
2018-10-18T04:43:08.876Z,87.00
2018-10-18T04:45:37.526Z,86.80
2018-10-18T04:48:06.356Z,86.90
2018-10-18T04:50:34.865Z,86.80
2018-10-18T04:53:03.613Z,86.80
2018-10-18T04:55:32.312Z,86.50
2018-10-18T04:58:01.173Z,86.60
2018-10-18T05:00:29.815Z,86.60
2018-10-18T05:02:58.484Z,86.80
2018-10-18T05:05:38.455Z,86.90
2018-10-18T05:08:07.094Z,86.90
2018-10-18T05:10:35.713Z,87.10
2018-10-18T05:13:04.544Z,87.00
2018-10-18T05:15:33.149Z,87.00
2018-10-18T05:18:01.894Z,87.20
2018-10-18T05:20:30.599Z,87.40
2018-10-18T05:22:59.255Z,87.60
2018-10-18T05:25:28.046Z,87.60
2018-10-18T05:27:56.705Z,87.70
2018-10-18T05:30:25.407Z,87.50
2018-10-18T05:32:54.044Z,87.80
2018-10-18T05:35:22.792Z,88.00
2018-10-18T05:37:51.473Z,87.80
2018-10-18T05:40:20.385Z,87.60
2018-10-18T05:42:49.364Z,87.20
2018-10-18T05:45:18.109Z,87.20
2018-10-18T05:47:46.777Z,87.10
2018-10-18T05:50:15.518Z,86.90
2018-10-18T05:52:44.129Z,86.70
2018-10-18T05:55:13.275Z,86.60
2018-10-18T05:57:42.325Z,86.40
2018-10-18T06:00:14.349Z,86.10
2018-10-18T06:02:43.081Z,85.80
2018-10-18T06:05:13.267Z,85.90
2018-10-18T06:07:42.412Z,86.00
2018-10-18T06:10:23.102Z,86.00
2018-10-18T06:12:52.226Z,85.70
2018-10-18T06:15:21.421Z,85.80
2018-10-18T06:17:50.213Z,85.20
2018-10-18T06:20:18.789Z,85.10
2018-10-18T06:22:47.505Z,84.50
2018-10-18T06:25:16.377Z,84.50
2018-10-18T06:27:45.061Z,83.80
2018-10-18T06:30:15.190Z,82.80
2018-10-18T06:32:43.993Z,82.80
2018-10-18T06:35:15.150Z,82.50
2018-10-18T06:37:43.938Z,82.50
2018-10-18T06:40:14.130Z,82.10
2018-10-18T06:42:43.043Z,81.30
2018-10-18T06:45:13.341Z,81.50
2018-10-18T06:47:42.598Z,81.60
2018-10-18T06:50:13.750Z,82.00
2018-10-18T06:52:42.808Z,82.50
2018-10-18T06:55:11.725Z,82.70
2018-10-18T06:57:41.446Z,83.60
2018-10-18T07:00:13.643Z,83.10
2018-10-18T07:02:42.831Z,82.60
2018-10-18T07:05:12.817Z,82.20
2018-10-18T07:07:42.260Z,81.70
2018-10-18T07:10:11.028Z,81.20
2018-10-18T07:12:40.224Z,81.00
2018-10-18T07:15:09.911Z,80.00
2018-10-18T07:17:39.529Z,79.40
2018-10-18T07:20:08.833Z,79.20
2018-10-18T07:22:38.305Z,78.80
2018-10-18T07:25:09.072Z,77.60
2018-10-18T07:27:38.136Z,77.10
2018-10-18T07:30:08.189Z,77.20
2018-10-18T07:32:37.009Z,76.40
2018-10-18T07:35:06.938Z,76.20
2018-10-18T07:37:36.622Z,76.10
2018-10-18T07:40:06.051Z,75.80
2018-10-18T07:42:34.816Z,75.40
2018-10-18T07:45:03.843Z,74.90
2018-10-18T07:47:32.591Z,74.70
2018-10-18T07:50:01.367Z,74.80
2018-10-18T07:52:30.253Z,73.60
2018-10-18T07:54:59.000Z,73.40
2018-10-18T07:57:27.793Z,74.00
2018-10-18T07:59:56.575Z,74.20
2018-10-18T08:02:25.324Z,74.10
2018-10-18T08:04:54.090Z,74.30
2018-10-18T08:07:22.960Z,74.20
2018-10-18T08:09:51.810Z,73.90
2018-10-18T08:12:20.601Z,73.70
2018-10-18T08:14:49.614Z,72.90
2018-10-18T08:17:18.383Z,73.10
2018-10-18T08:19:47.141Z,72.60
2018-10-18T08:22:15.977Z,72.10
2018-10-18T08:24:44.702Z,72.10
2018-10-18T08:27:13.617Z,72.10
2018-10-18T08:29:42.435Z,72.30
2018-10-18T08:32:11.225Z,72.40
2018-10-18T08:34:40.040Z,71.80
2018-10-18T08:37:08.869Z,71.80
2018-10-18T08:39:37.586Z,71.20
2018-10-18T08:42:06.468Z,70.30
2018-10-18T08:44:35.288Z,69.40
2018-10-18T08:47:04.114Z,68.60
2018-10-18T08:49:33.656Z,67.60
2018-10-18T08:52:02.466Z,67.10
2018-10-18T08:54:31.152Z,66.90
2018-10-18T08:56:59.880Z,67.40
2018-10-18T08:59:28.688Z,67.60
2018-10-18T09:01:57.514Z,67.40
2018-10-18T09:04:26.288Z,67.50
2018-10-18T09:06:55.100Z,68.10
2018-10-18T09:09:23.868Z,68.20
2018-10-18T09:11:52.577Z,68.10
2018-10-18T09:14:21.332Z,68.60
2018-10-18T09:16:50.088Z,68.30
2018-10-18T09:19:18.864Z,68.70
2018-10-18T09:21:48.788Z,68.90
2018-10-18T09:24:17.594Z,69.30
2018-10-18T09:26:46.432Z,68.10
2018-10-18T09:29:15.281Z,68.30
2018-10-18T09:31:44.053Z,68.50
2018-10-18T09:34:12.940Z,68.30
2018-10-18T09:36:41.912Z,68.00
2018-10-18T09:39:10.637Z,67.50
2018-10-18T09:41:39.344Z,66.80
2018-10-18T09:44:08.193Z,67.30
2018-10-18T09:46:37.374Z,66.60
2018-10-18T09:49:06.374Z,65.70
2018-10-18T09:51:35.206Z,64.90
2018-10-18T09:54:04.434Z,65.50
2018-10-18T09:56:34.257Z,65.10
2018-10-18T09:59:03.305Z,64.60
2018-10-18T10:01:37.361Z,63.40
2018-10-18T10:04:06.488Z,63.70
2018-10-18T10:06:35.868Z,64.60
2018-10-18T10:09:05.657Z,64.70
2018-10-18T10:11:34.485Z,65.00
2018-10-18T10:14:03.364Z,64.40
2018-10-18T10:16:32.134Z,65.10
2018-10-18T10:19:00.947Z,64.40
2018-10-18T10:21:29.650Z,64.90
2018-10-18T10:23:58.626Z,64.20
2018-10-18T10:26:27.426Z,62.50
2018-10-18T10:28:56.198Z,63.20
2018-10-18T10:31:24.971Z,62.50
2018-10-18T10:33:53.822Z,62.10
2018-10-18T10:36:22.561Z,62.90
2018-10-18T10:38:51.317Z,61.90
2018-10-18T10:41:20.080Z,60.40
2018-10-18T10:43:48.917Z,59.70
2018-10-18T10:46:17.817Z,58.90
2018-10-18T10:48:46.547Z,59.40
2018-10-18T10:51:15.398Z,59.10
2018-10-18T10:53:44.145Z,59.40
2018-10-18T10:56:12.952Z,59.20
2018-10-18T10:58:41.715Z,59.20
2018-10-18T11:01:11.891Z,58.20
2018-10-18T11:03:41.636Z,58.30
2018-10-18T11:06:10.885Z,58.10
2018-10-18T11:08:39.564Z,59.20
2018-10-18T11:11:08.737Z,59.50
2018-10-18T11:13:37.476Z,60.50
2018-10-18T11:16:06.680Z,61.60
2018-10-18T11:18:36.376Z,62.00
2018-10-18T11:21:06.240Z,62.20
2018-10-18T11:23:35.333Z,62.60
2018-10-18T11:26:04.359Z,63.70
2018-10-18T11:28:33.188Z,62.80
2018-10-18T11:31:02.081Z,63.50
2018-10-18T11:33:30.861Z,63.70
2018-10-18T11:35:59.603Z,63.80
2018-10-18T11:38:28.356Z,64.40
2018-10-18T11:40:57.126Z,64.80
2018-10-18T11:43:26.097Z,64.70
2018-10-18T11:45:54.964Z,65.30
2018-10-18T11:48:23.678Z,64.40
2018-10-18T11:50:52.424Z,64.50
2018-10-18T11:53:21.211Z,64.70
2018-10-18T11:55:50.027Z,65.00
2018-10-18T11:58:18.820Z,66.10
2018-10-18T12:00:47.580Z,66.30
2018-10-18T12:03:16.492Z,66.20
2018-10-18T12:05:45.372Z,66.40
2018-10-18T12:08:14.274Z,66.20
2018-10-18T12:10:42.973Z,66.50
2018-10-18T12:13:11.700Z,65.70
2018-10-18T12:15:40.505Z,66.20
2018-10-18T12:18:09.282Z,66.50
2018-10-18T12:20:38.460Z,66.00
2018-10-18T12:23:07.383Z,65.50
2018-10-18T12:25:36.221Z,65.90
2018-10-18T12:28:05.093Z,64.70
2018-10-18T12:30:33.897Z,65.10
2018-10-18T12:33:02.672Z,65.40
2018-10-18T12:35:31.399Z,65.40
2018-10-18T12:38:00.183Z,66.20
2018-10-18T12:40:29.151Z,66.50
2018-10-18T12:42:57.789Z,65.80
2018-10-18T12:45:26.754Z,65.40
2018-10-18T12:47:55.551Z,64.90
2018-10-18T12:50:24.459Z,65.20
2018-10-18T12:52:53.298Z,65.00
2018-10-18T12:55:22.080Z,64.70
2018-10-18T12:57:50.808Z,64.60
2018-10-18T13:00:19.734Z,65.10
2018-10-18T13:02:48.384Z,65.70
2018-10-18T13:05:17.113Z,65.20
2018-10-18T13:07:45.916Z,65.50
2018-10-18T13:10:14.689Z,65.90
2018-10-18T13:12:43.487Z,66.10
2018-10-18T13:15:12.480Z,66.10
2018-10-18T13:17:41.188Z,65.30
2018-10-18T13:20:10.811Z,65.30
2018-10-18T13:22:39.736Z,65.80
2018-10-18T13:25:09.982Z,65.60
2018-10-18T13:27:39.049Z,64.60
2018-10-18T13:30:09.327Z,65.30
2018-10-18T13:32:38.185Z,64.60
2018-10-18T13:35:07.399Z,65.00
2018-10-18T13:37:36.168Z,65.30
2018-10-18T13:40:06.225Z,65.50
2018-10-18T13:42:34.973Z,64.50
2018-10-18T13:45:04.109Z,64.80
2018-10-18T13:47:32.824Z,65.00
2018-10-18T13:50:01.686Z,64.70
2018-10-18T13:52:30.401Z,64.30
2018-10-18T13:54:59.229Z,64.30
2018-10-18T13:57:28.005Z,64.70
2018-10-18T14:00:17.583Z,64.90
2018-10-18T14:02:46.245Z,65.20
2018-10-18T14:05:15.228Z,64.10
2018-10-18T14:07:43.897Z,64.00
2018-10-18T14:10:12.817Z,64.10
2018-10-18T14:12:41.950Z,65.00
2018-10-18T14:15:10.864Z,64.70
2018-10-18T14:17:39.998Z,65.10
2018-10-18T14:20:09.100Z,64.40
2018-10-18T14:22:37.933Z,64.10
2018-10-18T14:25:06.837Z,64.70
2018-10-18T14:27:35.668Z,65.00
2018-10-18T14:30:04.980Z,65.40
2018-10-18T14:32:33.769Z,65.00
2018-10-18T14:35:02.722Z,66.30
2018-10-18T14:37:31.565Z,65.10
2018-10-18T14:40:00.396Z,65.20
2018-10-18T14:42:29.343Z,65.20
2018-10-18T14:44:58.180Z,65.20
2018-10-18T14:47:27.175Z,65.90
2018-10-18T14:49:56.126Z,65.30
2018-10-18T14:52:24.900Z,66.00
2018-10-18T14:54:54.075Z,65.30
2018-10-18T14:57:23.034Z,65.20
2018-10-18T14:59:52.710Z,64.90
2018-10-18T15:02:21.484Z,64.60
2018-10-18T15:04:50.342Z,64.40
2018-10-18T15:07:19.200Z,64.00
2018-10-18T15:09:47.989Z,64.20
2018-10-18T15:12:16.774Z,64.50
2018-10-18T15:14:45.568Z,64.70
2018-10-18T15:17:14.364Z,65.00
2018-10-18T15:19:43.122Z,65.20
2018-10-18T15:22:11.946Z,64.10
2018-10-18T15:24:40.769Z,64.10
2018-10-18T15:27:09.579Z,65.10
2018-10-18T15:29:38.346Z,66.20
2018-10-18T15:32:07.331Z,65.60
2018-10-18T15:34:36.160Z,65.50
2018-10-18T15:37:05.105Z,65.30
2018-10-18T15:39:33.894Z,65.50
2018-10-18T15:42:02.670Z,66.20
2018-10-18T15:44:31.503Z,67.10
2018-10-18T15:47:00.272Z,66.70
2018-10-18T15:49:29.149Z,66.20
2018-10-18T15:51:57.930Z,67.00
2018-10-18T15:54:26.857Z,66.80
2018-10-18T15:56:55.632Z,67.00
2018-10-18T15:59:24.444Z,68.00
2018-10-18T16:01:53.201Z,67.60
2018-10-18T16:04:22.054Z,67.50
2018-10-18T16:06:50.927Z,67.60
2018-10-18T16:09:19.709Z,67.90
2018-10-18T16:11:48.554Z,68.00
2018-10-18T16:14:17.335Z,68.30
2018-10-18T16:16:46.105Z,68.70
2018-10-18T16:19:14.873Z,68.70
2018-10-18T16:21:43.620Z,68.90
2018-10-18T16:24:12.384Z,69.30
2018-10-18T16:26:41.297Z,69.70
2018-10-18T16:29:10.160Z,70.20
2018-10-18T16:31:38.934Z,70.30
2018-10-18T16:34:07.749Z,70.50
2018-10-18T16:36:36.744Z,70.70
2018-10-18T16:39:08.317Z,70.30
2018-10-18T16:41:37.412Z,71.00
2018-10-18T16:44:06.623Z,71.80
2018-10-18T16:46:35.429Z,71.90
2018-10-18T16:49:04.366Z,72.40
2018-10-18T16:51:33.308Z,72.20
2018-10-18T16:54:02.356Z,72.70
2018-10-18T16:56:31.077Z,73.10
2018-10-18T16:58:59.981Z,73.30
2018-10-18T17:01:28.773Z,73.10
2018-10-18T17:03:57.732Z,73.40
2018-10-18T17:06:26.559Z,73.60
2018-10-18T17:08:55.381Z,73.60
2018-10-18T17:11:24.269Z,73.10
2018-10-18T17:13:53.027Z,73.70
2018-10-18T17:16:21.960Z,73.20
2018-10-18T17:18:50.869Z,73.10
2018-10-18T17:21:19.880Z,73.70
2018-10-18T17:23:48.673Z,74.80
2018-10-18T17:26:17.815Z,73.80
2018-10-18T17:28:46.646Z,73.80
2018-10-18T17:31:15.492Z,73.70
2018-10-18T17:33:44.333Z,73.20
2018-10-18T17:36:13.255Z,73.30
2018-10-18T17:38:42.025Z,73.40
2018-10-18T17:41:10.856Z,73.40
2018-10-18T17:43:39.721Z,74.20
2018-10-18T17:46:08.683Z,74.10
2018-10-18T17:48:37.501Z,74.20
2018-10-18T17:51:06.430Z,73.80
2018-10-18T17:53:35.260Z,74.20
2018-10-18T17:56:04.347Z,74.90
2018-10-18T17:58:33.140Z,75.00
2018-10-18T18:01:02.187Z,75.60
2018-10-18T18:03:31.273Z,75.40
2018-10-18T18:06:00.102Z,75.60
2018-10-18T18:08:28.980Z,75.80
2018-10-18T18:10:57.797Z,75.90
2018-10-18T18:13:26.706Z,75.80
2018-10-18T18:15:55.538Z,75.40
2018-10-18T18:18:24.340Z,75.80
2018-10-18T18:20:53.226Z,76.60
2018-10-18T18:23:22.092Z,76.60
2018-10-18T18:25:50.888Z,76.70
2018-10-18T18:28:19.687Z,76.70
2018-10-18T18:30:48.393Z,76.50
2018-10-18T18:33:17.079Z,76.70
2018-10-18T18:35:45.860Z,75.50
2018-10-18T18:38:14.649Z,75.60
2018-10-18T18:40:43.441Z,75.40
2018-10-18T18:43:12.124Z,75.60
2018-10-18T18:45:40.817Z,75.80
2018-10-18T18:48:09.748Z,76.20
2018-10-18T18:50:38.488Z,76.00
2018-10-18T18:53:07.290Z,75.80
2018-10-18T18:55:36.072Z,76.20
2018-10-18T18:58:04.821Z,76.50
2018-10-18T19:00:33.556Z,77.40
2018-10-18T19:03:02.345Z,76.40
2018-10-18T19:05:30.998Z,76.40
2018-10-18T19:07:59.678Z,76.60
2018-10-18T19:10:28.364Z,76.90
2018-10-18T19:12:57.005Z,76.70
2018-10-18T19:15:25.743Z,76.90
2018-10-18T19:17:54.450Z,77.10
2018-10-18T19:20:23.160Z,77.30
2018-10-18T19:22:51.961Z,77.50
2018-10-18T19:25:22.080Z,77.70
2018-10-18T19:27:50.822Z,77.50
2018-10-18T19:30:19.601Z,77.60
2018-10-18T19:32:48.332Z,77.90
2018-10-18T19:35:17.081Z,78.20
2018-10-18T19:37:45.772Z,78.20
2018-10-18T19:40:14.463Z,79.00
2018-10-18T19:42:43.143Z,79.20
2018-10-18T19:45:12.023Z,79.30
2018-10-18T19:47:40.799Z,79.30
2018-10-18T19:50:09.739Z,79.60
2018-10-18T19:52:38.529Z,80.00
2018-10-18T19:55:08.199Z,80.20
2018-10-18T19:57:36.900Z,80.40
2018-10-18T20:00:06.602Z,80.40
2018-10-18T20:02:35.438Z,80.60
2018-10-18T20:05:04.324Z,80.70
2018-10-18T20:07:33.085Z,80.70
2018-10-18T20:10:01.857Z,81.20
2018-10-18T20:12:30.527Z,81.40
2018-10-18T20:14:59.246Z,81.60
2018-10-18T20:17:28.065Z,81.60
2018-10-18T20:19:56.948Z,81.90
2018-10-18T20:22:25.575Z,82.10
2018-10-18T20:24:54.455Z,82.50
2018-10-18T20:27:23.067Z,82.50
2018-10-18T20:29:51.730Z,82.80
2018-10-18T20:32:20.462Z,83.00
2018-10-18T20:34:49.120Z,83.00
2018-10-18T20:37:18.004Z,83.00
2018-10-18T20:39:46.737Z,83.00
2018-10-18T20:42:15.370Z,83.20
2018-10-18T20:44:44.424Z,83.10
2018-10-18T20:47:13.216Z,83.10
2018-10-18T20:49:41.832Z,83.30
2018-10-18T20:52:10.533Z,83.30
2018-10-18T20:54:39.509Z,83.60
2018-10-18T20:57:08.251Z,83.50
2018-10-18T20:59:36.883Z,83.60
2018-10-18T21:02:05.708Z,83.70
2018-10-18T21:04:34.385Z,83.60
2018-10-18T21:07:03.077Z,83.60
2018-10-18T21:09:31.747Z,83.80
2018-10-18T21:14:27.692Z,83.90
2018-10-18T21:16:56.381Z,84.10
2018-10-18T21:19:25.068Z,84.10
2018-10-18T21:21:53.764Z,84.10
2018-10-18T21:24:23.188Z,84.00
2018-10-18T21:26:51.927Z,84.10
2018-10-18T21:29:20.632Z,84.40
2018-10-18T21:31:49.512Z,84.40
2018-10-18T21:34:18.263Z,84.60
2018-10-18T21:36:46.954Z,84.70
2018-10-18T21:39:25.492Z,84.70
2018-10-18T21:41:54.448Z,84.90
2018-10-18T21:44:24.868Z,84.90
2018-10-18T21:46:53.546Z,85.10
2018-10-18T21:49:22.345Z,85.40
2018-10-18T21:51:52.347Z,85.50
2018-10-18T21:54:21.101Z,85.60
2018-10-18T21:56:49.977Z,85.40
2018-10-18T21:59:18.662Z,85.50
2018-10-18T22:01:48.085Z,85.50
2018-10-18T22:04:17.540Z,85.70
2018-10-18T22:06:47.104Z,85.70
2018-10-18T22:09:16.260Z,85.80
2018-10-18T22:11:44.857Z,85.80
2018-10-18T22:14:13.886Z,85.80
2018-10-18T22:16:42.768Z,85.90
2018-10-18T22:19:11.452Z,86.00
2018-10-18T22:21:40.544Z,86.00
2018-10-18T22:24:10.987Z,86.00
2018-10-18T22:26:39.660Z,86.10
2018-10-18T22:29:08.462Z,86.20
2018-10-18T22:31:37.313Z,86.30
2018-10-18T22:34:06.372Z,86.40
2018-10-18T22:36:35.016Z,86.50
2018-10-18T22:39:04.965Z,86.70
2018-10-18T22:41:33.577Z,86.60
2018-10-18T22:44:02.296Z,86.50
2018-10-18T22:46:31.513Z,86.40
2018-10-18T22:49:01.168Z,86.40
2018-10-18T22:51:30.241Z,86.70
2018-10-18T22:53:58.924Z,86.60
2018-10-18T22:56:27.544Z,86.70
2018-10-18T22:58:56.221Z,86.60
2018-10-18T23:01:25.640Z,86.70
2018-10-18T23:03:54.323Z,86.90
2018-10-18T23:06:23.053Z,87.10
2018-10-18T23:08:51.693Z,87.10
2018-10-18T23:11:20.345Z,87.40
2018-10-18T23:13:48.956Z,87.70
2018-10-18T23:16:17.577Z,87.70
2018-10-18T23:18:46.575Z,87.40
2018-10-18T23:21:15.294Z,87.50
2018-10-18T23:23:44.475Z,88.20
2018-10-18T23:26:13.139Z,88.10
2018-10-18T23:28:41.773Z,88.30
2018-10-18T23:31:10.511Z,88.40
2018-10-18T23:33:39.280Z,88.50
2018-10-18T23:36:07.975Z,88.40
2018-10-18T23:38:36.685Z,88.60
2018-10-18T23:41:06.126Z,88.70
2018-10-18T23:43:34.693Z,88.90
2018-10-18T23:46:03.382Z,89.00
2018-10-18T23:48:32.017Z,89.20
2018-10-18T23:51:01.474Z,89.10
2018-10-18T23:53:30.317Z,89.10
2018-10-18T23:55:58.991Z,89.20
2018-10-18T23:58:27.683Z,88.90
